Kekaha, Hawaii
Current Conditions -  °F | °C
As of 1:56 AM on Tuesday 27 Jan 2015 (Local Time) from PHBK Reporting Station
Clear Clear  
Wind Chill: 65°   Ceiling: Unl
Heat Index: 65°   Visibility: 10mi
Dew Point: 56°   Wind: 6mph
Humidity: 73%   Direction: 60°ENE
Pressure: 29.95"   Gusts: NA
Location:  21.97°N, 159.69°W
Report Text: PHBK 271156Z AUTO 06005KT 10SM CLR 18/13 A2995 RMK AO2 SLP145 7//// T01830133 10206 20178 58011
Loading
Personal Weather Stations






























Interactive Weather Map New forecast layout! Learn more

10-Day Weather Forecast

Advertisements
Track Severe Weather on mobile